Time;durP1;ratioP1;P1;durP2;ratioP2;P2;SDS_P1;SDS_P2;PMS_P1;PMS_P2;Temp;Humidity;BMP_temperature;BMP_pressure;BME280_temperature;BME280_humidity;BME280_pressure;Samples;Min_cycle;Max_cycle;Signal;HPM_P1;HPM_P2
2023/12/20 00:00:26;;;;;;;2.60;2.40;;;;;;;11.61;53.60;98763.97;8362637;23;20213;-76
2023/12/20 00:03:49;;;;;;;2.40;2.23;;;;;;;11.69;53.47;98773.72;8363677;23;20560;-75
2023/12/20 00:07:11;;;;;;;2.90;2.60;;;;;;;11.50;54.21;98769.97;8363701;23;20212;-77
2023/12/20 00:10:32;;;;;;;2.33;2.20;;;;;;;11.28;55.74;98759.66;8362778;23;20209;-76
2023/12/20 00:13:54;;;;;;;2.40;2.30;;;;;;;11.94;54.06;98748.47;8363783;23;20752;-77
2023/12/20 00:17:15;;;;;;;2.70;2.50;;;;;;;11.77;53.90;98739.19;8363498;23;20270;-77
2023/12/20 00:20:38;;;;;;;2.33;2.13;;;;;;;11.88;54.00;98741.22;8363432;23;20277;-79
2023/12/20 00:23:59;;;;;;;2.40;2.20;;;;;;;11.69;54.46;98750.22;8362259;23;20330;-77
2023/12/20 00:27:21;;;;;;;2.47;2.27;;;;;;;11.78;54.85;98742.69;8363150;23;20236;-77
2023/12/20 00:30:42;;;;;;;2.53;2.33;;;;;;;11.63;55.24;98732.16;8362375;23;20263;-76
2023/12/20 00:34:04;;;;;;;2.13;1.93;;;;;;;11.70;55.53;98732.16;8362502;23;20202;-77
2023/12/20 00:37:27;;;;;;;3.13;2.20;;;;;;;11.92;54.79;98731.63;8362593;23;20185;-77
2023/12/20 00:40:49;;;;;;;2.27;2.17;;;;;;;12.17;54.07;98724.41;8359597;23;20217;-76
2023/12/20 00:44:11;;;;;;;2.27;2.10;;;;;;;11.80;55.64;98721.72;8360137;23;20188;-76
2023/12/20 00:47:32;;;;;;;2.10;2.00;;;;;;;11.02;57.51;98719.22;8361066;23;20288;-76
2023/12/20 00:50:54;;;;;;;2.20;2.10;;;;;;;10.35;60.12;98737.47;8359579;23;20241;-77
2023/12/20 00:54:16;;;;;;;2.13;2.03;;;;;;;11.30;57.92;98730.56;8360286;23;20272;-76
2023/12/20 00:57:38;;;;;;;2.60;2.40;;;;;;;11.54;57.27;98736.13;8358682;23;20217;-77
2023/12/20 01:00:59;;;;;;;4.57;2.27;;;;;;;11.26;57.81;98726.63;8357889;23;20689;-76
2023/12/20 01:04:21;;;;;;;2.50;2.30;;;;;;;11.17;59.30;98736.81;8359731;23;20213;-76
2023/12/20 01:07:42;;;;;;;2.30;2.20;;;;;;;11.31;58.76;98719.56;8360980;23;20283;-77
2023/12/20 01:11:06;;;;;;;2.20;2.10;;;;;;;12.03;56.71;98732.84;8358558;23;20237;-77
2023/12/20 01:14:28;;;;;;;2.50;2.30;;;;;;;11.49;57.50;98719.72;8357787;23;20238;-77
2023/12/20 01:17:50;;;;;;;2.67;2.47;;;;;;;11.41;58.65;98735.31;8360363;23;20592;-77
2023/12/20 01:21:11;;;;;;;2.40;2.30;;;;;;;11.60;57.72;98738.00;8357940;23;20202;-77
2023/12/20 01:24:33;;;;;;;2.77;2.57;;;;;;;11.27;59.56;98753.41;8360742;23;20224;-77
2023/12/20 01:27:56;;;;;;;3.90;2.73;;;;;;;10.93;60.89;98742.88;8359386;23;20209;-77
2023/12/20 01:31:17;;;;;;;2.90;2.70;;;;;;;11.05;61.33;98749.28;8358941;23;20343;-77
2023/12/20 01:34:39;;;;;;;2.97;2.77;;;;;;;10.43;63.31;98756.13;8359200;23;20193;-77
2023/12/20 01:38:00;;;;;;;3.00;2.47;;;;;;;10.70;63.32;98747.03;8358756;23;20212;-76
2023/12/20 01:41:22;;;;;;;2.40;2.20;;;;;;;10.59;63.49;98756.59;8315491;23;1069433;-77
2023/12/20 01:44:44;;;;;;;2.27;2.17;;;;;;;11.00;62.25;98753.66;8363401;23;20270;-77
2023/12/20 01:48:07;;;;;;;2.60;2.40;;;;;;;10.91;62.24;98754.91;8362622;23;20339;-77
2023/12/20 01:51:29;;;;;;;2.20;2.10;;;;;;;11.16;62.40;98756.75;8361475;23;20211;-77
2023/12/20 01:54:51;;;;;;;2.70;2.50;;;;;;;10.99;62.44;98752.81;8360329;23;20186;-76
2023/12/20 01:58:13;;;;;;;3.67;2.57;;;;;;;10.93;63.13;98744.75;8362099;23;20265;-77
2023/12/20 02:01:36;;;;;;;2.63;2.43;;;;;;;10.90;63.23;98761.34;8361674;23;20283;-77
2023/12/20 02:04:58;;;;;;;2.60;2.40;;;;;;;10.69;64.16;98772.34;8363170;23;20182;-77
2023/12/20 02:08:19;;;;;;;2.90;2.60;;;;;;;10.87;63.72;98746.41;8362100;23;20818;-76
2023/12/20 02:11:41;;;;;;;2.50;2.30;;;;;;;10.79;63.83;98754.72;8360725;23;20255;-76
2023/12/20 02:15:03;;;;;;;2.53;2.23;;;;;;;11.61;61.68;98741.50;8362125;23;20631;-77
2023/12/20 02:18:26;;;;;;;2.40;2.20;;;;;;;11.50;61.43;98739.44;8361459;23;20239;-77
2023/12/20 02:21:48;;;;;;;3.20;2.50;;;;;;;11.52;61.47;98740.06;8361851;23;20284;-76
2023/12/20 02:25:10;;;;;;;2.70;2.50;;;;;;;11.69;60.84;98744.00;8363035;23;20260;-76
2023/12/20 02:28:32;;;;;;;2.90;2.60;;;;;;;11.66;60.46;98737.16;8361888;23;20270;-77
2023/12/20 02:31:54;;;;;;;3.07;2.87;;;;;;;11.33;61.95;98751.75;8360384;23;20578;-77
2023/12/20 02:35:16;;;;;;;3.83;3.53;;;;;;;10.79;63.40;98740.38;8361361;23;20225;-77
2023/12/20 02:38:38;;;;;;;3.17;2.87;;;;;;;11.27;62.36;98742.63;8361581;23;20216;-77
2023/12/20 02:42:00;;;;;;;4.50;3.17;;;;;;;11.31;62.58;98749.28;8361475;23;20759;-76
2023/12/20 02:45:21;;;;;;;4.13;3.20;;;;;;;11.58;61.73;98747.31;8362649;23;20347;-77
2023/12/20 02:48:43;;;;;;;3.37;3.17;;;;;;;11.36;61.85;98748.63;8362059;23;20263;-80
2023/12/20 02:52:05;;;;;;;3.93;3.53;;;;;;;11.59;61.40;98744.44;8360406;23;20253;-78
2023/12/20 02:55:28;;;;;;;5.20;3.53;;;;;;;11.67;61.31;98746.06;8360797;23;20220;-81
2023/12/20 02:58:49;;;;;;;3.90;3.60;;;;;;;11.43;61.79;98752.97;8361399;23;20556;-77
2023/12/20 03:02:11;;;;;;;3.77;3.47;;;;;;;11.66;61.01;98747.13;8361687;23;20287;-77
2023/12/20 03:05:34;;;;;;;4.03;3.73;;;;;;;11.61;60.66;98750.47;8361649;23;20622;-77
2023/12/20 03:08:55;;;;;;;5.47;4.10;;;;;;;11.76;60.45;98748.31;8360583;23;20284;-77
2023/12/20 03:12:18;;;;;;;4.27;3.97;;;;;;;11.35;61.76;98755.06;8360376;23;20299;-78
2023/12/20 03:15:39;;;;;;;4.97;4.43;;;;;;;11.26;62.20;98761.72;8361601;23;20641;-77
2023/12/20 03:19:01;;;;;;;5.07;4.57;;;;;;;11.27;61.75;98766.91;8361596;23;20260;-77
2023/12/20 03:22:22;;;;;;;4.60;4.20;;;;;;;11.47;61.78;98750.69;8362836;23;20210;-79
2023/12/20 03:25:44;;;;;;;5.20;4.80;;;;;;;11.37;62.01;98779.97;8363367;23;20607;-76
2023/12/20 03:29:07;;;;;;;5.80;5.10;;;;;;;11.24;62.22;98767.34;8361505;23;20205;-77
2023/12/20 03:32:28;;;;;;;5.60;5.00;;;;;;;11.28;62.09;98771.25;8362694;23;20726;-78
2023/12/20 03:35:49;;;;;;;5.87;5.27;;;;;;;10.95;63.12;98780.44;8364240;23;20200;-76
2023/12/20 03:39:11;;;;;;;9.03;6.67;;;;;;;10.81;63.85;98773.41;8363321;23;20188;-74
2023/12/20 03:42:32;;;;;;;8.83;6.83;;;;;;;10.61;64.37;98773.38;8363308;23;20747;-74
2023/12/20 03:45:55;;;;;;;7.67;6.87;;;;;;;11.07;64.14;98781.47;8363070;23;20269;-76
2023/12/20 03:49:17;;;;;;;7.43;6.73;;;;;;;11.01;63.98;98771.50;8359960;23;20289;-75
2023/12/20 03:52:38;;;;;;;7.37;6.13;;;;;;;11.24;63.06;98785.41;8362281;23;20564;-78
2023/12/20 03:56:00;;;;;;;9.73;6.90;;;;;;;11.36;62.28;98783.72;8363815;23;20280;-77
2023/12/20 03:59:21;;;;;;;7.00;6.20;;;;;;;11.34;62.24;98777.72;8362693;23;20211;-75
2023/12/20 04:02:44;;;;;;;7.43;6.50;;;;;;;11.17;63.25;98768.38;8360549;23;20281;-75
2023/12/20 04:06:06;;;;;;;7.60;6.77;;;;;;;11.29;62.61;98770.25;8362686;23;20265;-75
2023/12/20 04:09:27;;;;;;;9.47;6.77;;;;;;;11.48;62.18;98792.81;8362640;23;20262;-75
2023/12/20 04:12:48;;;;;;;7.53;6.37;;;;;;;11.21;62.19;98788.53;8364017;23;20288;-76
2023/12/20 04:16:10;;;;;;;7.40;6.60;;;;;;;11.22;62.63;98787.50;8363994;23;20266;-78
2023/12/20 04:19:33;;;;;;;6.00;5.03;;;;;;;11.12;62.91;98796.00;8362042;23;20264;-73
2023/12/20 04:22:54;;;;;;;4.67;4.17;;;;;;;11.12;63.05;98790.63;8361648;23;20347;-79
2023/12/20 04:26:16;;;;;;;5.33;4.07;;;;;;;10.70;63.93;98790.19;8362076;23;20272;-74
2023/12/20 04:29:37;;;;;;;4.07;3.67;;;;;;;11.16;62.82;98804.50;8363141;23;20279;-75
2023/12/20 04:32:59;;;;;;;3.60;3.30;;;;;;;10.99;63.05;98800.56;8363429;23;20286;-76
2023/12/20 04:36:21;;;;;;;2.53;2.33;;;;;;;10.87;63.11;98807.63;8362992;23;20707;-74
2023/12/20 04:39:43;;;;;;;2.40;2.20;;;;;;;10.93;62.94;98821.09;8360829;23;20266;-75
2023/12/20 04:43:04;;;;;;;2.67;2.47;;;;;;;10.67;63.56;98825.63;8362922;23;20287;-75
2023/12/20 04:46:26;;;;;;;2.00;1.90;;;;;;;11.04;62.36;98814.28;8363215;23;20624;-74
2023/12/20 04:49:47;;;;;;;2.00;1.90;;;;;;;11.12;61.85;98831.09;8362906;23;20292;-74
2023/12/20 04:53:10;;;;;;;1.70;1.60;;;;;;;10.84;62.37;98830.44;8362619;23;20232;-78
2023/12/20 04:56:32;;;;;;;1.63;1.60;;;;;;;10.87;62.22;98843.50;8362930;23;20696;-73
2023/12/20 04:59:53;;;;;;;1.63;1.53;;;;;;;11.07;61.83;98830.88;8361785;23;20225;-76
2023/12/20 05:03:14;;;;;;;1.40;1.40;;;;;;;10.78;62.20;98825.88;8362454;23;20283;-75
2023/12/20 05:06:36;;;;;;;1.50;1.50;;;;;;;10.82;61.59;98824.44;8363851;23;20225;-75
2023/12/20 05:09:59;;;;;;;1.70;1.60;;;;;;;10.71;61.75;98832.28;8362978;23;20339;-80
2023/12/20 05:13:20;;;;;;;1.57;1.50;;;;;;;11.04;61.29;98838.56;8362993;23;20681;-74
2023/12/20 05:16:42;;;;;;;1.80;1.70;;;;;;;11.10;61.38;98845.81;8361518;23;20271;-76
2023/12/20 05:20:04;;;;;;;1.60;1.60;;;;;;;11.18;60.87;98826.72;8362627;23;20319;-74
2023/12/20 05:23:25;;;;;;;1.50;1.50;;;;;;;11.34;60.55;98846.00;8362671;23;20596;-74
2023/12/20 05:26:48;;;;;;;1.70;1.60;;;;;;;11.42;59.83;98848.50;8363004;23;20262;-73
2023/12/20 05:30:11;;;;;;;1.70;1.70;;;;;;;11.35;60.21;98850.38;8362947;23;20246;-75
2023/12/20 05:33:32;;;;;;;1.60;1.60;;;;;;;11.19;60.32;98840.00;8362832;23;20745;-73
2023/12/20 05:36:54;;;;;;;1.97;1.87;;;;;;;10.97;61.50;98852.03;8361527;23;20185;-76
2023/12/20 05:40:15;;;;;;;1.50;1.50;;;;;;;10.97;61.25;98851.19;8361046;23;20574;-73
2023/12/20 05:43:38;;;;;;;1.80;1.80;;;;;;;11.17;60.94;98865.53;8363406;23;20268;-73
2023/12/20 05:47:00;;;;;;;1.53;1.53;;;;;;;10.93;60.72;98868.84;8363435;23;20269;-73
2023/12/20 05:50:22;;;;;;;1.80;1.70;;;;;;;11.27;60.59;98877.56;8361537;23;20290;-73
2023/12/20 05:53:43;;;;;;;2.20;2.03;;;;;;;11.36;59.83;98878.19;8362400;23;20662;-74
2023/12/20 05:57:05;;;;;;;2.17;2.07;;;;;;;11.33;59.65;98894.81;8361953;23;20183;-74
2023/12/20 06:00:28;;;;;;;2.50;2.30;;;;;;;11.20;59.71;98892.09;8362069;23;20178;-73
2023/12/20 06:03:50;;;;;;;2.23;2.13;;;;;;;11.30;59.79;98890.66;8361423;23;20215;-73
2023/12/20 06:07:12;;;;;;;2.07;1.97;;;;;;;11.26;60.05;98894.81;8362571;23;20195;-77
2023/12/20 06:10:34;;;;;;;1.80;1.70;;;;;;;11.10;60.57;98899.78;8361060;23;20733;-76
2023/12/20 06:13:55;;;;;;;2.23;1.80;;;;;;;11.08;60.69;98904.53;8360782;23;20189;-77
2023/12/20 06:17:18;;;;;;;2.23;2.03;;;;;;;11.00;61.03;98916.38;8361072;23;20246;-76
2023/12/20 06:20:40;;;;;;;2.33;2.13;;;;;;;11.15;60.65;98914.31;8357774;23;20261;-76
2023/12/20 06:24:01;;;;;;;2.37;2.10;;;;;;;11.32;60.18;98922.81;8361682;23;20190;-77
2023/12/20 06:27:23;;;;;;;2.00;1.90;;;;;;;11.22;60.65;98911.63;8360209;23;20527;-77
2023/12/20 06:30:45;;;;;;;2.53;2.33;;;;;;;11.26;60.38;98902.06;8360240;23;20291;-79
2023/12/20 06:34:08;;;;;;;3.30;3.00;;;;;;;11.22;60.84;98912.44;8361803;23;20182;-78
2023/12/20 06:37:30;;;;;;;3.33;3.03;;;;;;;11.13;60.74;98918.25;8360834;23;20660;-78
2023/12/20 06:40:51;;;;;;;4.33;3.93;;;;;;;10.97;61.25;98924.88;8360360;23;20298;-77
2023/12/20 06:44:13;;;;;;;3.33;3.00;;;;;;;10.79;62.48;98924.63;8360455;23;20276;-77
2023/12/20 06:47:34;;;;;;;2.80;2.60;;;;;;;10.69;62.79;98917.97;8360342;23;20188;-75
2023/12/20 06:50:57;;;;;;;2.23;2.03;;;;;;;10.99;62.15;98919.28;8356578;23;20339;-76
2023/12/20 06:54:18;;;;;;;2.30;2.20;;;;;;;11.21;61.47;98918.06;8361361;23;20685;-76
2023/12/20 06:57:40;;;;;;;2.13;1.90;;;;;;;10.68;63.13;98936.00;8362612;23;20268;-77
2023/12/20 07:01:02;;;;;;;2.20;2.10;;;;;;;10.63;63.44;98935.75;8361256;23;20239;-77
2023/12/20 07:04:23;;;;;;;2.50;2.40;;;;;;;10.55;63.89;98946.72;8361923;23;20262;-77
2023/12/20 07:07:46;;;;;;;5.03;2.50;;;;;;;10.86;63.11;98947.03;8361892;23;20268;-76
2023/12/20 07:11:07;;;;;;;2.47;2.20;;;;;;;10.82;63.44;98955.75;8362429;23;20634;-76
2023/12/20 07:14:29;;;;;;;3.07;2.30;;;;;;;11.00;62.62;98964.94;8363624;23;20269;-76
2023/12/20 07:17:50;;;;;;;2.80;2.60;;;;;;;10.80;63.24;98955.94;8362846;23;20272;-76
2023/12/20 07:21:12;;;;;;;2.63;2.43;;;;;;;10.73;63.19;98959.66;8360774;23;20355;-76
2023/12/20 07:24:35;;;;;;;2.73;2.50;;;;;;;10.57;64.01;98963.53;8361978;23;20783;-75
2023/12/20 07:27:56;;;;;;;2.50;2.30;;;;;;;10.63;64.33;98964.59;8362397;23;20684;-75
2023/12/20 07:31:18;;;;;;;4.80;3.00;;;;;;;10.69;64.07;98966.50;8362214;23;20236;-75
2023/12/20 07:34:39;;;;;;;3.30;3.00;;;;;;;10.64;63.56;98975.16;8362810;23;20271;-75
2023/12/20 07:38:02;;;;;;;3.30;2.90;;;;;;;10.70;63.87;98976.25;8361931;23;20268;-75
2023/12/20 07:41:25;;;;;;;3.20;2.93;;;;;;;10.74;63.58;98977.50;8360683;23;20210;-77
2023/12/20 07:44:46;;;;;;;3.67;3.37;;;;;;;10.96;63.42;98976.31;8374033;23;20180;-75
2023/12/20 07:48:08;;;;;;;4.40;4.00;;;;;;;10.92;63.35;98994.78;8360986;23;20365;-75
2023/12/20 07:51:29;;;;;;;5.40;4.90;;;;;;;10.60;64.18;99003.59;8360212;23;20296;-75
2023/12/20 07:54:51;;;;;;;6.20;5.13;;;;;;;10.79;63.87;99007.38;8363288;23;20621;-75
2023/12/20 07:58:14;;;;;;;5.00;4.53;;;;;;;10.34;65.11;99005.31;8362043;23;20299;-75
2023/12/20 08:01:35;;;;;;;5.93;4.53;;;;;;;11.03;63.82;99017.66;8361634;23;20283;-76
2023/12/20 08:04:57;;;;;;;4.93;4.47;;;;;;;10.59;63.80;99018.09;8359629;23;20627;-76
2023/12/20 08:08:18;;;;;;;5.50;4.60;;;;;;;10.66;63.81;99016.25;8357775;23;20273;-76
2023/12/20 08:11:40;;;;;;;4.70;4.10;;;;;;;10.93;62.03;99007.22;8357132;23;20629;-77
2023/12/20 08:15:04;;;;;;;5.10;4.70;;;;;;;10.75;62.27;99008.84;8362370;23;20264;-75
2023/12/20 08:18:25;;;;;;;4.30;4.00;;;;;;;10.58;62.29;99029.06;8362083;23;20196;-75
2023/12/20 08:21:47;;;;;;;5.23;4.47;;;;;;;10.76;61.47;99021.28;8360409;23;20238;-82
2023/12/20 08:25:08;;;;;;;5.03;4.27;;;;;;;10.76;61.48;99037.47;8362566;23;20276;-80
2023/12/20 08:28:31;;;;;;;5.10;4.50;;;;;;;10.88;61.13;99041.25;8363151;23;20624;-77
2023/12/20 08:31:54;;;;;;;5.33;4.83;;;;;;;11.14;59.65;99039.47;8363052;23;20352;-74
2023/12/20 08:35:16;;;;;;;6.50;4.70;;;;;;;10.59;60.53;99045.06;8363677;23;20185;-74
2023/12/20 08:38:38;;;;;;;4.43;4.03;;;;;;;10.58;60.24;99045.25;8363125;23;20188;-74
2023/12/20 08:41:59;;;;;;;5.33;4.83;;;;;;;10.50;59.89;99054.34;8362442;23;20310;-77
2023/12/20 08:45:21;;;;;;;5.03;4.50;;;;;;;10.18;60.99;99054.97;8359804;23;20259;-75
2023/12/20 08:48:44;;;;;;;4.77;4.27;;;;;;;10.51;60.14;99061.38;8362756;23;20236;-75
2023/12/20 08:52:06;;;;;;;5.63;4.63;;;;;;;10.62;60.06;99051.94;8363142;23;20287;-75
2023/12/20 08:55:28;;;;;;;5.10;4.40;;;;;;;10.29;60.43;99053.56;8363984;23;20208;-77
2023/12/20 08:58:50;;;;;;;7.63;4.23;;;;;;;10.15;60.28;99065.31;8361821;23;20223;-77
2023/12/20 09:02:11;;;;;;;4.83;4.43;;;;;;;10.63;59.20;99045.50;8362108;23;20577;-75
2023/12/20 09:05:35;;;;;;;4.47;3.77;;;;;;;10.21;59.52;99056.44;8363156;23;20671;-75
2023/12/20 09:08:56;;;;;;;4.37;4.07;;;;;;;10.38;59.33;99052.38;8361359;23;20275;-75
2023/12/20 09:12:19;;;;;;;4.57;4.03;;;;;;;10.50;58.10;99027.38;8363405;23;20206;-75
2023/12/20 09:15:40;;;;;;;4.17;3.77;;;;;;;10.46;59.29;99044.97;8363005;23;20195;-75
2023/12/20 09:19:02;;;;;;;5.00;3.90;;;;;;;10.63;58.48;99049.00;8361341;23;20247;-75
2023/12/20 09:22:24;;;;;;;4.57;4.13;;;;;;;10.35;59.12;99061.72;8362665;23;20229;-75
2023/12/20 09:25:46;;;;;;;3.60;3.30;;;;;;;11.00;57.38;99047.72;8363068;23;20193;-76
2023/12/20 09:29:09;;;;;;;5.57;3.20;;;;;;;11.35;56.20;99043.91;8359654;23;20289;-75
2023/12/20 09:32:30;;;;;;;3.93;3.30;;;;;;;11.47;55.69;99051.22;8360130;23;20224;-75
2023/12/20 09:35:52;;;;;;;4.77;3.43;;;;;;;11.42;55.48;99055.53;8363004;23;20225;-74
2023/12/20 09:39:15;;;;;;;4.73;3.43;;;;;;;11.32;55.49;99044.28;8361771;23;20209;-74
2023/12/20 09:42:41;;;;;;;4.67;3.47;;;;;;;11.22;55.14;99054.66;8362406;23;20202;-75
2023/12/20 09:46:04;;;;;;;4.23;3.47;;;;;;;10.83;56.48;99058.03;8362907;23;20276;-75
2023/12/20 09:49:28;;;;;;;3.50;3.10;;;;;;;11.13;54.67;99059.41;8362487;23;20206;-74
2023/12/20 09:52:51;;;;;;;3.50;3.20;;;;;;;11.30;55.37;99063.41;8363059;23;20640;-75
2023/12/20 09:56:14;;;;;;;3.70;2.80;;;;;;;11.05;54.39;99067.66;8362522;23;20186;-77
2023/12/20 09:59:35;;;;;;;4.93;3.30;;;;;;;11.51;53.91;99070.53;8362210;23;20212;-76
2023/12/20 10:02:59;;;;;;;4.60;4.20;;;;;;;12.04;51.80;99065.00;8363444;23;20284;-81
2023/12/20 10:06:20;;;;;;;4.07;2.90;;;;;;;12.09;51.92;99051.69;8363571;23;20185;-80
2023/12/20 10:09:42;;;;;;;3.30;2.33;;;;;;;12.03;50.77;99044.41;8362839;23;20276;-80
2023/12/20 10:13:07;;;;;;;7.77;2.53;;;;;;;11.81;50.65;99058.34;8362076;23;20284;-80
2023/12/20 10:16:29;;;;;;;3.43;2.70;;;;;;;12.08;50.63;99051.88;8362883;23;20654;-83
2023/12/20 10:19:51;;;;;;;6.00;2.73;;;;;;;12.53;49.10;99051.00;8362132;23;20291;-79
2023/12/20 10:23:13;;;;;;;4.03;2.83;;;;;;;12.04;49.54;99050.66;8362578;23;20280;-80
2023/12/20 10:26:34;;;;;;;9.60;2.97;;;;;;;11.57;50.43;99046.22;8362877;23;20185;-76
2023/12/20 10:29:59;;;;;;;4.40;2.70;;;;;;;12.33;48.05;99029.41;8361393;23;20201;-82
2023/12/20 10:33:25;;;;;;;6.37;2.87;;;;;;;11.92;49.83;99004.50;8363004;23;20260;-77
2023/12/20 10:36:46;;;;;;;5.90;3.50;;;;;;;12.24;48.13;99027.13;8363075;23;20270;-78
2023/12/20 10:40:09;;;;;;;5.90;2.67;;;;;;;12.19;48.31;99032.34;8363599;23;20217;-79
2023/12/20 10:43:31;;;;;;;2.87;2.30;;;;;;;11.62;47.44;99010.56;8364136;23;20287;-75
2023/12/20 10:46:58;;;;;;;6.70;2.73;;;;;;;11.85;47.78;99038.81;8364516;23;20700;-81
2023/12/20 10:50:20;;;;;;;6.27;2.80;;;;;;;12.25;46.15;99001.75;8362208;23;20185;-76
2023/12/20 10:53:41;;;;;;;5.77;2.80;;;;;;;12.38;46.05;99045.00;8362501;23;20280;-77
2023/12/20 10:57:06;;;;;;;9.37;2.77;;;;;;;11.93;46.00;99029.66;8362885;23;20216;-78
2023/12/20 11:00:30;;;;;;;4.13;2.87;;;;;;;12.29;46.80;99040.88;8362735;23;20268;-78
2023/12/20 11:03:53;;;;;;;4.73;2.77;;;;;;;12.08;46.98;99030.25;8362911;23;20186;-78
2023/12/20 11:07:21;;;;;;;6.43;2.53;;;;;;;11.62;48.60;99024.88;8363399;23;20631;-78
2023/12/20 11:10:46;;;;;;;4.67;2.50;;;;;;;11.55;49.47;99032.09;8361604;23;20539;-79
2023/12/20 11:14:09;;;;;;;4.67;2.50;;;;;;;11.75;47.96;99030.28;8362062;23;20167;-78
2023/12/20 11:17:32;;;;;;;4.57;2.47;;;;;;;12.08;47.26;99024.88;8364067;23;20690;-79
2023/12/20 11:20:55;;;;;;;3.50;2.40;;;;;;;11.75;48.12;99022.16;8377954;23;20206;-78
2023/12/20 11:24:17;;;;;;;6.10;2.57;;;;;;;12.05;48.07;99019.88;8366677;23;20750;-77
2023/12/20 11:27:42;;;;;;;2.97;2.30;;;;;;;12.46;46.69;99007.75;8362856;23;20182;-77
2023/12/20 11:31:04;;;;;;;3.73;2.80;;;;;;;12.31;46.04;99006.31;8361472;23;20233;-78
2023/12/20 11:34:28;;;;;;;3.93;2.40;;;;;;;12.37;46.05;99002.78;8362262;23;20221;-77
2023/12/20 11:37:52;;;;;;;4.50;2.50;;;;;;;11.43;47.15;99014.84;8363753;23;20589;-78
2023/12/20 11:41:13;;;;;;;3.07;2.50;;;;;;;11.09;48.27;99008.75;8362287;23;20315;-77
2023/12/20 11:44:35;;;;;;;5.67;2.63;;;;;;;11.25;48.96;99013.75;8363027;23;20551;-77
2023/12/20 11:47:57;;;;;;;2.83;2.50;;;;;;;11.15;48.03;99014.16;8362177;23;20185;-77
2023/12/20 11:51:18;;;;;;;6.87;2.70;;;;;;;10.91;48.67;99021.94;8361521;23;20653;-77
2023/12/20 11:54:41;;;;;;;4.13;2.63;;;;;;;11.29;47.63;99015.03;8362029;23;20217;-77
2023/12/20 11:58:03;;;;;;;5.67;2.40;;;;;;;11.00;47.93;99004.56;8363561;23;20313;-78
2023/12/20 12:01:25;;;;;;;5.53;2.60;;;;;;;10.58;47.38;99004.81;8361907;23;20279;-78
2023/12/20 12:04:50;;;;;;;3.57;2.60;;;;;;;10.88;47.47;99023.22;8362861;23;20327;-80
2023/12/20 12:08:12;;;;;;;4.47;2.50;;;;;;;10.91;47.40;99016.56;8362085;23;20177;-81
2023/12/20 12:11:35;;;;;;;6.83;2.67;;;;;;;10.78;47.97;99020.06;8360119;23;20219;-78
2023/12/20 12:14:57;;;;;;;5.77;2.70;;;;;;;10.42;48.80;99015.91;8363343;23;20220;-77
2023/12/20 12:18:19;;;;;;;5.23;3.13;;;;;;;10.60;47.78;99010.81;8363238;23;20477;-77
2023/12/20 12:21:40;;;;;;;10.07;3.53;;;;;;;10.36;48.92;99001.38;8362148;23;20284;-81
2023/12/20 12:25:11;;;;;;;6.87;2.87;;;;;;;10.84;47.91;98999.53;8359292;23;20765;-78
2023/12/20 12:28:35;;;;;;;7.17;3.63;;;;;;;10.90;47.71;98985.22;8361690;23;20270;-79
2023/12/20 12:31:56;;;;;;;7.50;3.57;;;;;;;11.01;47.65;98982.78;8361969;23;20883;-77
2023/12/20 12:35:18;;;;;;;4.10;2.47;;;;;;;10.91;47.70;98973.41;8363451;23;20268;-78
2023/12/20 12:38:40;;;;;;;6.00;3.43;;;;;;;11.34;45.96;98967.47;8363110;23;20232;-77
2023/12/20 12:42:01;;;;;;;4.77;3.00;;;;;;;11.62;45.66;98976.25;8362297;23;20621;-78
2023/12/20 12:45:24;;;;;;;3.93;2.47;;;;;;;11.38;46.39;98968.72;8363257;23;20239;-77
2023/12/20 12:48:46;;;;;;;7.43;2.70;;;;;;;11.55;45.92;98975.38;8374064;23;20176;-78
2023/12/20 12:52:07;;;;;;;4.23;2.80;;;;;;;11.92;45.78;98963.97;8362660;23;20554;-78
2023/12/20 12:55:29;;;;;;;5.33;3.03;;;;;;;11.89;45.56;98968.97;8362707;23;20247;-79
2023/12/20 12:58:50;;;;;;;6.73;3.03;;;;;;;11.46;46.26;98968.50;8361828;23;20182;-77
2023/12/20 13:02:14;;;;;;;3.53;2.80;;;;;;;11.73;45.33;98959.44;8363207;23;20702;-78
2023/12/20 13:05:35;;;;;;;3.37;2.40;;;;;;;11.17;46.13;98965.38;8362907;23;20205;-77
2023/12/20 13:08:57;;;;;;;3.00;2.40;;;;;;;11.28;46.66;98972.88;8362932;23;20312;-77
2023/12/20 13:12:18;;;;;;;11.03;4.03;;;;;;;11.18;46.86;98972.44;8363273;23;20286;-79
2023/12/20 13:15:40;;;;;;;6.97;4.10;;;;;;;10.83;47.30;98942.06;8363391;23;20191;-77
2023/12/20 13:19:03;;;;;;;2.80;2.50;;;;;;;11.39;46.08;98969.56;8362705;23;20192;-78
2023/12/20 13:22:24;;;;;;;6.07;3.90;;;;;;;11.39;46.71;98953.38;8363522;23;20653;-79
2023/12/20 13:25:46;;;;;;;5.70;2.90;;;;;;;11.29;47.04;98961.03;8362732;23;20216;-78
2023/12/20 13:29:08;;;;;;;7.30;3.53;;;;;;;11.33;46.80;98965.00;8362351;23;20740;-78
2023/12/20 13:32:29;;;;;;;6.97;3.80;;;;;;;11.42;48.02;98963.75;8361300;23;20289;-78
2023/12/20 13:35:52;;;;;;;5.17;2.73;;;;;;;11.20;47.41;98964.97;8363272;23;20196;-78
2023/12/20 13:39:14;;;;;;;8.03;3.10;;;;;;;11.08;47.25;98959.34;8362835;23;20185;-77
2023/12/20 13:42:35;;;;;;;4.87;2.70;;;;;;;11.54;47.12;98964.78;8362428;23;20201;-78
2023/12/20 13:45:57;;;;;;;7.00;3.37;;;;;;;11.53;47.46;98955.03;8362542;23;20615;-80
2023/12/20 13:49:18;;;;;;;5.07;3.20;;;;;;;11.30;46.98;98973.50;8360985;23;20196;-78
2023/12/20 13:52:41;;;;;;;8.57;3.17;;;;;;;11.25;47.51;98967.88;8362973;23;20259;-78
2023/12/20 13:56:03;;;;;;;4.90;2.40;;;;;;;10.83;48.11;98970.88;8362760;23;20249;-77
2023/12/20 13:59:26;;;;;;;6.47;2.90;;;;;;;10.66;47.91;98985.75;8362822;23;20234;-78
2023/12/20 14:02:47;;;;;;;4.57;4.10;;;;;;;10.45;48.07;98972.41;8362534;23;20689;-80
2023/12/20 14:06:09;;;;;;;8.80;2.87;;;;;;;10.86;47.94;98976.72;8360867;23;20191;-78
2023/12/20 14:09:32;;;;;;;5.80;3.20;;;;;;;10.86;48.17;98965.09;8362388;23;20185;-79
2023/12/20 14:12:54;;;;;;;2.90;2.50;;;;;;;11.09;47.56;98971.78;8360581;23;20267;-78
2023/12/20 14:16:16;;;;;;;5.23;2.40;;;;;;;11.28;47.38;98959.38;8360015;23;20216;-78
2023/12/20 14:19:39;;;;;;;4.47;2.80;;;;;;;10.51;49.31;98974.31;8360294;23;20641;-79
2023/12/20 14:23:01;;;;;;;2.57;2.37;;;;;;;10.70;49.83;98942.00;8362497;23;20212;-79
2023/12/20 14:26:23;;;;;;;7.27;2.83;;;;;;;11.15;49.00;98933.19;8362612;23;20192;-78
2023/12/20 14:29:45;;;;;;;4.33;2.97;;;;;;;11.14;48.51;98947.72;8363400;23;20278;-78
2023/12/20 14:33:06;;;;;;;3.37;2.53;;;;;;;11.15;49.70;98935.91;8362008;23;20299;-78
2023/12/20 14:36:29;;;;;;;7.97;2.97;;;;;;;11.28;49.38;98935.91;8362467;23;20793;-78
2023/12/20 14:39:51;;;;;;;5.27;2.80;;;;;;;10.93;50.08;98925.50;8362706;23;20193;-78
2023/12/20 14:43:14;;;;;;;4.57;2.90;;;;;;;11.29;49.73;98926.78;8362776;23;20293;-79
2023/12/20 14:46:35;;;;;;;11.10;6.43;;;;;;;11.52;48.51;98929.88;8362924;23;20231;-79
2023/12/20 14:49:57;;;;;;;6.20;3.00;;;;;;;11.12;49.73;98943.56;8360177;23;20256;-77
2023/12/20 14:53:18;;;;;;;7.30;2.90;;;;;;;11.23;49.87;98935.69;8362311;23;20237;-77
2023/12/20 14:56:40;;;;;;;8.80;3.13;;;;;;;10.82;51.68;98928.78;8362768;23;20203;-78
2023/12/20 15:00:04;;;;;;;7.53;3.80;;;;;;;10.74;51.87;98935.19;8361975;23;20220;-78
2023/12/20 15:03:26;;;;;;;14.13;8.00;;;;;;;10.82;51.37;98951.19;8361932;23;20198;-78
2023/12/20 15:06:48;;;;;;;4.30;3.50;;;;;;;10.52;52.12;98960.59;8362611;23;20182;-78
2023/12/20 15:10:10;;;;;;;12.37;6.80;;;;;;;10.64;52.06;98960.88;8362445;23;20637;-78
2023/12/20 15:13:32;;;;;;;17.50;7.43;;;;;;;10.74;52.90;98964.03;8361717;23;20236;-79
2023/12/20 15:16:56;;;;;;;22.77;9.40;;;;;;;11.19;51.68;98942.56;8361659;23;20221;-78
2023/12/20 15:20:17;;;;;;;14.17;7.43;;;;;;;11.01;52.61;98960.34;8363939;23;20271;-77
2023/12/20 15:23:40;;;;;;;7.70;4.60;;;;;;;10.67;53.40;98949.66;8364433;23;20229;-77
2023/12/20 15:27:02;;;;;;;10.20;4.07;;;;;;;10.75;53.90;98953.00;8364227;23;20774;-79
2023/12/20 15:30:24;;;;;;;22.17;11.47;;;;;;;10.84;53.96;98959.06;8363716;23;20192;-79
2023/12/20 15:33:47;;;;;;;6.67;4.87;;;;;;;10.96;53.73;98958.28;8364215;23;20213;-79
2023/12/20 15:37:09;;;;;;;7.63;3.43;;;;;;;10.99;53.58;98938.97;8363621;23;20221;-78
2023/12/20 15:40:33;;;;;;;4.97;4.03;;;;;;;11.38;52.31;98946.28;8363789;23;20227;-78
2023/12/20 15:43:55;;;;;;;5.20;3.73;;;;;;;11.24;53.19;98948.16;8363925;23;20701;-77
2023/12/20 15:47:16;;;;;;;8.23;3.70;;;;;;;10.67;54.13;98955.06;8363466;23;20513;-78
2023/12/20 15:50:39;;;;;;;6.30;3.50;;;;;;;10.63;53.43;98937.66;8363485;23;20237;-79